Time;durP1;ratioP1;P1;durP2;ratioP2;P2;SDS_P1;SDS_P2;PMS_P1;PMS_P2;Temp;Humidity;BMP_temperature;BMP_pressure;BME280_temperature;BME280_humidity;BME280_pressure;Samples;Min_cycle;Max_cycle;Signal;HPM_P1;HPM_P2
2023/05/29 00:01:18;;;;;;;15.75;9.27;;;;;;;19.86;82.32;100310.81;5041834;28;20029;-92
2023/05/29 00:03:44;;;;;;;14.15;8.73;;;;;;;19.82;82.04;100293.13;5056160;28;20033;-91
2023/05/29 00:06:10;;;;;;;19.63;8.52;;;;;;;19.91;82.37;100302.03;5054829;28;20551;-93
2023/05/29 00:08:36;;;;;;;20.33;9.38;;;;;;;19.94;82.11;100307.09;5055213;28;20033;-95
2023/05/29 00:11:01;;;;;;;21.63;11.20;;;;;;;19.95;82.56;100304.19;5055023;28;20033;-94
2023/05/29 00:13:27;;;;;;;20.42;11.32;;;;;;;19.90;83.03;100305.81;5056088;28;20110;-93
2023/05/29 00:15:52;;;;;;;19.27;10.50;;;;;;;19.77;83.33;100287.41;5055860;28;20044;-93
2023/05/29 00:18:18;;;;;;;20.70;11.23;;;;;;;19.70;84.04;100272.81;5042099;28;20029;-94
2023/05/29 00:20:43;;;;;;;17.10;11.98;;;;;;;19.76;84.62;100298.50;5033928;28;20025;-94
2023/05/29 00:23:09;;;;;;;22.52;11.57;;;;;;;19.80;85.11;100305.25;5047709;28;20056;-94
2023/05/29 00:25:35;;;;;;;19.42;11.57;;;;;;;19.65;85.24;100269.84;5046266;28;20025;-95
2023/05/29 00:28:01;;;;;;;19.30;12.82;;;;;;;19.63;85.87;100288.25;5053668;28;20021;-92
2023/05/29 00:30:27;;;;;;;16.50;12.38;;;;;;;19.49;86.59;100273.63;5056026;28;20032;-91
2023/05/29 00:32:52;;;;;;;19.25;12.27;;;;;;;19.64;86.90;100298.16;5054471;28;20029;-93
2023/05/29 00:35:18;;;;;;;24.67;13.02;;;;;;;19.61;87.24;100294.94;5051346;28;20033;-92
2023/05/29 00:37:43;;;;;;;26.33;13.63;;;;;;;19.60;87.54;100309.66;5047581;28;20013;-89
2023/05/29 00:40:10;;;;;;;19.13;13.13;;;;;;;19.57;87.78;100299.13;5039199;28;20029;-94
2023/05/29 00:42:35;;;;;;;18.98;12.02;;;;;;;19.47;87.66;100288.50;5032173;28;20030;-93
2023/05/29 00:45:01;;;;;;;24.13;13.30;;;;;;;19.28;88.40;100273.53;5032024;28;20456;-92
2023/05/29 00:47:27;;;;;;;21.55;12.98;;;;;;;19.45;88.14;100296.84;5032870;28;20061;-92
2023/05/29 00:49:53;;;;;;;40.75;15.90;;;;;;;19.46;88.77;100293.09;5038451;28;20585;-92
2023/05/29 00:52:20;;;;;;;26.48;13.30;;;;;;;19.53;88.43;100304.09;5043618;28;20027;-91
2023/05/29 00:54:46;;;;;;;27.33;13.43;;;;;;;19.43;88.40;100289.91;5045959;28;20447;-91
2023/05/29 00:57:13;;;;;;;23.63;15.23;;;;;;;19.59;88.41;100308.78;5055906;28;20021;-91
2023/05/29 00:59:41;;;;;;;26.95;15.77;;;;;;;19.50;88.70;100288.97;5043396;28;20041;-90
2023/05/29 01:02:07;;;;;;;22.85;16.80;;;;;;;19.47;88.97;100286.63;5040039;28;20123;-90
2023/05/29 01:04:33;;;;;;;28.95;18.92;;;;;;;19.46;89.44;100287.66;5036554;28;20112;-91
2023/05/29 01:07:02;;;;;;;28.77;19.50;;;;;;;19.39;89.97;100285.81;5034684;28;20056;-91
2023/05/29 01:09:29;;;;;;;31.30;20.35;;;;;;;19.39;90.54;100285.81;5034521;28;20396;-91
2023/05/29 01:12:03;;;;;;;29.05;20.92;;;;;;;19.41;90.67;100279.19;5034317;28;20121;-92
2023/05/29 01:14:47;;;;;;;37.47;22.17;;;;;;;19.37;90.98;100279.72;5034086;28;20072;-91
2023/05/29 01:17:47;;;;;;;26.65;20.65;;;;;;;19.37;91.04;100274.25;5051852;28;20101;-91
2023/05/29 01:20:35;;;;;;;30.00;22.08;;;;;;;19.36;91.32;100281.59;5045944;28;20029;-88
2023/05/29 01:23:19;;;;;;;32.58;23.90;;;;;;;19.32;92.36;100285.75;5043866;28;20090;-92
2023/05/29 01:25:54;;;;;;;36.58;24.35;;;;;;;19.36;92.26;100280.75;5073829;28;20033;-92
2023/05/29 01:28:23;;;;;;;34.90;21.65;;;;;;;19.32;92.63;100285.75;5072520;28;20037;-91
2023/05/29 01:30:51;;;;;;;39.80;22.63;;;;;;;19.12;93.38;100260.09;5034100;28;20028;-92
2023/05/29 01:33:17;;;;;;;32.65;24.42;;;;;;;19.29;93.68;100275.22;5034421;28;20101;-91
2023/05/29 01:35:42;;;;;;;34.60;24.30;;;;;;;19.16;94.27;100263.28;5036094;28;20040;-93
2023/05/29 01:38:08;;;;;;;38.95;25.73;;;;;;;19.17;94.63;100259.53;5034883;28;20411;-93
2023/05/29 01:40:34;;;;;;;36.78;26.75;;;;;;;19.26;94.85;100275.63;5035280;28;20029;-91
2023/05/29 01:43:00;;;;;;;39.83;26.95;;;;;;;19.20;95.22;100259.16;5036330;28;20068;-92
2023/05/29 01:45:25;;;;;;;43.67;26.52;;;;;;;19.24;95.58;100266.75;5035444;28;20029;-91
2023/05/29 01:47:51;;;;;;;40.58;28.38;;;;;;;19.12;96.07;100245.59;5033222;28;20455;-92
2023/05/29 01:50:19;;;;;;;43.58;27.27;;;;;;;19.16;96.45;100247.78;5034424;28;20426;-92
2023/05/29 01:52:45;;;;;;;49.15;30.15;;;;;;;19.27;96.80;100274.56;5033782;28;20057;-93
2023/05/29 01:55:11;;;;;;;43.25;30.42;;;;;;;19.27;96.81;100274.56;5034076;28;20029;-91
2023/05/29 01:57:37;;;;;;;41.05;30.10;;;;;;;19.17;96.87;100248.63;5033695;28;20037;-91
2023/05/29 02:00:08;;;;;;;38.92;28.30;;;;;;;19.22;96.91;100262.53;5032566;28;20120;-93
2023/05/29 02:02:40;;;;;;;40.80;30.15;;;;;;;19.21;97.26;100261.69;5032278;28;20045;-91
2023/05/29 02:05:07;;;;;;;39.00;28.50;;;;;;;19.28;97.19;100278.13;5033240;28;20037;-92
2023/05/29 02:07:34;;;;;;;40.53;29.40;;;;;;;19.27;97.34;100280.00;5031904;28;20037;-92
2023/05/29 02:10:00;;;;;;;39.60;28.33;;;;;;;19.29;97.26;100269.78;5032787;28;20041;-93
2023/05/29 02:12:25;;;;;;;43.33;30.35;;;;;;;19.33;97.20;100268.34;5033231;28;20518;-92
2023/05/29 02:14:51;;;;;;;46.65;30.73;;;;;;;19.32;97.00;100269.41;5035543;28;20408;-92
2023/05/29 02:17:16;;;;;;;43.33;31.30;;;;;;;19.32;97.21;100276.72;5044525;28;20025;-93
2023/05/29 02:19:41;;;;;;;47.38;31.52;;;;;;;19.35;97.32;100277.19;5044250;28;20037;-91
2023/05/29 02:22:07;;;;;;;47.17;31.13;;;;;;;19.20;97.25;100260.00;5055326;28;20060;-93
2023/05/29 02:24:33;;;;;;;39.92;31.10;;;;;;;19.36;97.54;100281.59;5055542;28;20025;-93
2023/05/29 02:26:58;;;;;;;51.80;29.30;;;;;;;19.36;97.16;100267.97;5035522;28;20067;-92
2023/05/29 02:29:24;;;;;;;32.63;27.30;;;;;;;19.41;96.84;100279.19;5032201;28;20030;-92
2023/05/29 02:31:49;;;;;;;39.00;26.48;;;;;;;19.38;96.90;100274.09;5033162;28;20084;-92
2023/05/29 02:34:15;;;;;;;33.97;26.13;;;;;;;19.34;96.86;100275.50;5033089;28;20029;-91
2023/05/29 02:36:40;;;;;;;36.63;26.00;;;;;;;19.34;96.32;100275.50;5033481;28;20029;-91
2023/05/29 02:39:06;;;;;;;36.60;26.20;;;;;;;19.21;96.51;100261.69;5049898;28;20029;-93
2023/05/29 02:41:32;;;;;;;42.00;25.23;;;;;;;19.27;96.67;100277.28;5032892;28;20426;-92
2023/05/29 02:43:57;;;;;;;43.40;25.42;;;;;;;19.26;96.52;100281.06;5032352;28;20025;-91
2023/05/29 02:46:22;;;;;;;37.92;24.95;;;;;;;19.20;96.76;100265.47;5032661;28;20116;-91
2023/05/29 02:48:48;;;;;;;34.53;24.80;;;;;;;19.18;96.61;100272.97;5033010;28;20507;-91
2023/05/29 02:51:14;;;;;;;34.65;22.60;;;;;;;19.27;96.44;100299.09;5032341;28;20406;-91
2023/05/29 02:53:40;;;;;;;30.85;22.35;;;;;;;19.28;96.22;100289.88;5035048;28;20029;-94
2023/05/29 02:56:08;;;;;;;27.45;21.38;;;;;;;19.22;96.32;100285.19;5047494;28;20068;-94
2023/05/29 02:58:35;;;;;;;36.03;23.00;;;;;;;19.04;96.32;100252.03;5047150;28;20036;-93
2023/05/29 03:01:02;;;;;;;30.20;20.52;;;;;;;19.20;96.47;100278.25;5055516;28;20064;-94
2023/05/29 03:03:27;;;;;;;32.20;21.38;;;;;;;19.34;96.19;100305.50;5037005;28;20025;-92
2023/05/29 03:05:53;;;;;;;38.53;22.30;;;;;;;19.30;95.87;100296.00;5035090;28;20060;-93
2023/05/29 03:08:18;;;;;;;33.50;22.15;;;;;;;19.19;95.59;100273.81;5033192;28;20030;-90
2023/05/29 03:10:44;;;;;;;49.33;22.77;;;;;;;19.23;95.67;100286.03;5037851;28;20041;-90
2023/05/29 03:13:10;;;;;;;37.25;21.13;;;;;;;19.38;95.71;100309.53;5047738;28;20064;-90
2023/05/29 03:15:35;;;;;;;39.90;20.55;;;;;;;19.25;95.56;100279.34;5041272;28;20032;-86
2023/05/29 03:18:01;;;;;;;29.08;20.58;;;;;;;19.39;95.00;100305.78;5050709;28;20014;-93
2023/05/29 03:20:27;;;;;;;38.08;20.27;;;;;;;19.39;94.53;100311.25;5070575;28;20027;-91
2023/05/29 03:22:53;;;;;;;33.50;21.02;;;;;;;19.37;94.20;100305.13;5055298;28;20040;-88
2023/05/29 03:25:20;;;;;;;40.40;24.63;;;;;;;19.25;94.20;100295.72;5061031;28;20033;-92
2023/05/29 03:27:45;;;;;;;42.80;23.30;;;;;;;19.28;94.92;100300.81;5034203;28;20037;-85
2023/05/29 03:30:11;;;;;;;45.35;22.83;;;;;;;19.37;94.82;100309.72;5052169;28;20036;-90
2023/05/29 03:32:37;;;;;;;34.58;21.13;;;;;;;19.35;94.69;100301.75;5037378;28;20170;-93
2023/05/29 03:35:03;;;;;;;34.78;21.25;;;;;;;19.40;94.70;100306.66;5035978;28;20443;-90
2023/05/29 03:37:29;;;;;;;42.42;21.40;;;;;;;19.43;94.74;100312.56;5062903;28;20057;-89
2023/05/29 03:39:55;;;;;;;42.60;24.25;;;;;;;19.44;94.64;100306.09;5037072;28;20033;-89
2023/05/29 03:42:20;;;;;;;28.95;20.80;;;;;;;19.45;94.78;100324.13;5051491;28;20385;-91
2023/05/29 03:44:46;;;;;;;31.15;22.80;;;;;;;19.49;95.01;100320.00;5051119;28;20033;-92
2023/05/29 03:47:11;;;;;;;40.97;21.33;;;;;;;19.41;94.73;100311.94;5059402;28;20864;-89
2023/05/29 03:49:37;;;;;;;55.45;21.55;;;;;;;19.36;94.59;100308.03;5061999;28;20053;-90
2023/05/29 03:52:02;;;;;;;42.35;23.27;;;;;;;19.47;94.88;100322.09;5056952;28;20475;-90
2023/05/29 03:54:28;;;;;;;35.35;22.33;;;;;;;19.36;94.62;100297.97;5056248;28;20040;-88
2023/05/29 03:56:53;;;;;;;68.82;25.15;;;;;;;19.50;94.08;100321.69;5036511;28;20048;-91
2023/05/29 03:59:19;;;;;;;34.10;20.85;;;;;;;19.29;93.98;100290.75;5033987;28;20029;-87
2023/05/29 04:01:44;;;;;;;42.53;22.63;;;;;;;19.44;94.00;100327.91;5051261;28;20026;-90
2023/05/29 04:04:10;;;;;;;79.05;24.38;;;;;;;19.45;94.22;100331.47;5032514;28;20048;-79
2023/05/29 04:06:38;;;;;;;35.97;22.02;;;;;;;19.54;94.35;100347.53;5032446;28;20179;-84
2023/05/29 04:09:06;;;;;;;34.65;21.80;;;;;;;19.44;94.26;100317.00;5034176;28;20025;-83
2023/05/29 04:11:34;;;;;;;32.25;21.48;;;;;;;19.50;94.31;100318.97;5033149;28;20030;-86
2023/05/29 04:14:01;;;;;;;39.88;22.42;;;;;;;19.60;94.27;100343.22;5044639;28;20061;-84
2023/05/29 04:16:28;;;;;;;45.08;21.38;;;;;;;19.53;94.49;100321.31;5048896;28;20021;-78
2023/05/29 04:18:53;;;;;;;52.13;22.92;;;;;;;19.66;94.47;100338.91;5046009;28;20120;-92
2023/05/29 04:21:18;;;;;;;52.97;22.17;;;;;;;19.58;94.23;100314.44;5031706;28;20082;-82
2023/05/29 04:23:44;;;;;;;44.53;22.38;;;;;;;19.62;94.17;100319.31;5029927;28;20095;-89
2023/05/29 04:26:10;;;;;;;95.38;25.58;;;;;;;19.73;94.14;100328.88;5033546;28;20029;-79
2023/05/29 04:28:37;;;;;;;45.47;23.20;;;;;;;19.69;94.00;100319.41;5033272;28;20112;-88
2023/05/29 04:31:03;;;;;;;87.65;26.13;;;;;;;19.79;93.75;100330.84;5030314;28;20037;-85
2023/05/29 04:33:29;;;;;;;47.30;24.30;;;;;;;19.87;93.57;100339.81;5042269;28;20037;-85
2023/05/29 04:35:54;;;;;;;46.38;21.85;;;;;;;19.87;92.97;100325.31;5049068;28;20036;-87
2023/05/29 04:38:24;;;;;;;55.53;24.55;;;;;;;19.92;92.73;100323.69;5049888;28;20033;-84
2023/05/29 04:40:51;;;;;;;46.33;23.25;;;;;;;19.98;92.01;100331.09;5036041;28;20025;-82
2023/05/29 04:43:16;;;;;;;36.30;20.50;;;;;;;19.88;91.81;100307.88;5033960;28;20114;-89
2023/05/29 04:45:42;;;;;;;38.83;19.02;;;;;;;19.91;91.41;100323.84;5034358;28;20030;-83
2023/05/29 04:48:08;;;;;;;49.72;16.75;;;;;;;19.97;91.37;100331.28;5031908;28;20025;-90
2023/05/29 04:50:35;;;;;;;65.18;16.85;;;;;;;20.06;90.71;100332.84;5028696;28;20055;-81
2023/05/29 04:53:00;;;;;;;37.08;17.45;;;;;;;20.10;90.89;100345.09;5029389;28;20056;-83
2023/05/29 04:55:26;;;;;;;32.92;18.88;;;;;;;20.09;90.56;100332.47;5029222;28;20477;-85
2023/05/29 04:57:52;;;;;;;29.40;17.52;;;;;;;20.25;89.80;100354.06;5029835;28;20564;-85
2023/05/29 05:00:18;;;;;;;31.08;19.02;;;;;;;20.20;90.27;100345.63;5028250;28;20025;-84
2023/05/29 05:02:45;;;;;;;34.80;19.30;;;;;;;20.12;90.88;100342.19;5029158;28;20021;-81
2023/05/29 05:05:11;;;;;;;33.38;19.17;;;;;;;20.20;91.47;100356.56;5031021;28;20537;-83
2023/05/29 05:07:36;;;;;;;46.95;20.10;;;;;;;20.39;91.23;100366.03;5031314;28;20117;-84
2023/05/29 05:10:06;;;;;;;91.28;24.27;;;;;;;20.44;90.53;100369.88;5031850;28;20029;-81
2023/05/29 05:12:31;;;;;;;70.97;20.58;;;;;;;20.55;89.91;100371.22;5034504;28;20029;-81
2023/05/29 05:14:57;;;;;;;76.43;22.35;;;;;;;20.64;88.94;100375.50;5033703;28;20041;-84
2023/05/29 05:17:22;;;;;;;68.25;22.83;;;;;;;20.55;87.25;100350.22;5031412;28;20034;-86
2023/05/29 05:19:53;;;;;;;59.65;21.17;;;;;;;20.68;87.39;100360.41;5032274;28;20029;-87
2023/05/29 05:22:18;;;;;;;98.35;21.40;;;;;;;20.72;87.37;100355.41;5047758;28;20029;-83
2023/05/29 05:24:44;;;;;;;57.47;19.42;;;;;;;20.71;86.75;100360.03;5034969;28;20025;-85
2023/05/29 05:27:10;;;;;;;67.15;21.48;;;;;;;20.85;86.16;100377.41;5035977;28;20036;-87
2023/05/29 05:29:36;;;;;;;104.95;23.67;;;;;;;20.85;85.66;100359.13;5034028;28;20025;-89
2023/05/29 05:32:01;;;;;;;92.10;23.88;;;;;;;21.03;85.88;100380.50;5031459;28;20155;-85
2023/05/29 05:34:26;;;;;;;52.83;17.95;;;;;;;21.03;84.29;100375.88;5032357;28;20111;-85
2023/05/29 05:36:52;;;;;;;62.85;19.67;;;;;;;20.92;84.58;100372.81;5036250;28;20039;-84
2023/05/29 05:39:17;;;;;;;87.32;21.15;;;;;;;21.04;84.10;100373.97;5034025;28;20203;-84
2023/05/29 05:41:43;;;;;;;23.23;14.27;;;;;;;21.13;82.96;100389.22;5033852;28;20104;-81
2023/05/29 05:44:08;;;;;;;71.20;17.92;;;;;;;21.28;82.72;100405.53;5032040;28;20032;-85
2023/05/29 05:46:34;;;;;;;47.45;15.13;;;;;;;21.31;82.17;100399.69;5031558;28;20026;-81
2023/05/29 05:49:00;;;;;;;75.20;17.42;;;;;;;21.32;81.56;100402.19;5045556;28;20048;-81
2023/05/29 05:51:26;;;;;;;43.92;15.25;;;;;;;21.25;81.69;100395.84;5035446;28;20033;-86
2023/05/29 05:53:52;;;;;;;76.07;21.63;;;;;;;21.28;81.88;100411.03;5033345;28;20052;-83
2023/05/29 05:56:18;;;;;;;49.33;18.60;;;;;;;21.23;81.85;100402.53;5032611;28;20033;-85
2023/05/29 05:58:43;;;;;;;50.13;17.10;;;;;;;21.04;82.80;100398.56;5032664;28;20035;-85
2023/05/29 06:01:09;;;;;;;23.70;12.77;;;;;;;21.10;82.69;100395.94;5035160;28;20045;-85
2023/05/29 06:03:35;;;;;;;25.67;14.38;;;;;;;21.16;83.12;100397.00;5033122;28;20033;-85
2023/05/29 06:06:01;;;;;;;40.55;15.70;;;;;;;21.20;83.36;100387.38;5033259;28;20082;-80
2023/05/29 06:08:26;;;;;;;87.70;19.65;;;;;;;21.24;83.29;100376.88;5044547;28;20021;-84
2023/05/29 06:10:52;;;;;;;39.00;15.88;;;;;;;21.29;82.69;100375.25;5044496;28;20041;-84
2023/05/29 06:13:18;;;;;;;49.53;16.00;;;;;;;21.33;82.53;100376.53;5030428;28;20045;-85
2023/05/29 06:15:43;;;;;;;77.18;21.10;;;;;;;21.30;82.63;100376.94;5031860;28;20034;-81
2023/05/29 06:18:09;;;;;;;47.85;23.65;;;;;;;21.09;86.72;100375.13;5031868;28;20069;-84
2023/05/29 06:20:34;;;;;;;58.22;25.88;;;;;;;20.76;90.99;100373.13;5032009;28;20048;-85
2023/05/29 06:23:00;;;;;;;49.97;25.20;;;;;;;20.48;93.92;100382.09;5032794;28;20048;-86
2023/05/29 06:25:33;;;;;;;55.83;24.70;;;;;;;20.34;96.68;100380.25;5029784;28;20084;-83
2023/05/29 06:28:02;;;;;;;51.65;24.85;;;;;;;20.17;99.14;100378.78;5031262;28;20029;-81
2023/05/29 06:30:28;;;;;;;37.42;23.02;;;;;;;20.09;100.00;100381.59;5031278;28;20037;-80
2023/05/29 06:32:53;;;;;;;41.28;22.70;;;;;;;19.78;100.00;100365.50;5029631;28;20466;-79
2023/05/29 06:35:19;;;;;;;36.55;21.77;;;;;;;19.55;100.00;100362.88;5031744;28;20051;-84
2023/05/29 06:37:47;;;;;;;36.35;21.27;;;;;;;19.61;100.00;100376.78;5031551;28;20018;-83
2023/05/29 06:40:14;;;;;;;37.05;22.38;;;;;;;19.55;100.00;100381.13;5031508;28;20632;-85
2023/05/29 06:42:39;;;;;;;43.90;24.25;;;;;;;19.40;100.00;100372.09;5032366;28;20022;-89
2023/05/29 06:45:05;;;;;;;40.45;27.27;;;;;;;19.25;100.00;100358.44;5030705;28;20034;-84
2023/05/29 06:47:31;;;;;;;42.75;28.45;;;;;;;19.15;100.00;100366.03;5031779;28;20052;-85
2023/05/29 06:49:56;;;;;;;51.72;29.30;;;;;;;19.14;100.00;100372.53;5031601;28;20041;-85
2023/05/29 06:52:22;;;;;;;60.35;36.08;;;;;;;19.01;100.00;100358.69;5031998;28;20033;-88
2023/05/29 06:54:47;;;;;;;58.88;34.28;;;;;;;19.08;100.00;100380.63;5031889;28;20064;-85
2023/05/29 06:57:12;;;;;;;46.97;31.60;;;;;;;18.94;100.00;100365.91;5034756;28;20033;-85
2023/05/29 06:59:38;;;;;;;65.07;31.52;;;;;;;18.99;100.00;100377.94;5034589;28;20045;-84
2023/05/29 07:02:05;;;;;;;59.95;30.08;;;;;;;18.94;100.00;100385.00;5032849;28;20118;-85
2023/05/29 07:04:30;;;;;;;40.50;29.10;;;;;;;18.83;100.00;100371.81;5054856;28;20025;-89
2023/05/29 07:06:56;;;;;;;47.53;30.63;;;;;;;18.91;100.00;100379.91;5055368;28;20100;-88
2023/05/29 07:09:21;;;;;;;47.85;28.65;;;;;;;18.89;100.00;100396.47;5031871;28;20041;-85
2023/05/29 07:11:47;;;;;;;50.20;29.48;;;;;;;18.92;100.00;100414.31;5030500;28;20031;-84
2023/05/29 07:14:12;;;;;;;38.75;24.95;;;;;;;18.93;100.00;100416.00;5028856;28;20608;-85
2023/05/29 07:16:38;;;;;;;34.88;21.50;;;;;;;18.84;100.00;100417.09;5030257;28;20084;-86
2023/05/29 07:19:03;;;;;;;23.45;15.65;;;;;;;18.73;100.00;100422.97;5030100;28;20463;-87
2023/05/29 07:21:28;;;;;;;31.77;16.30;;;;;;;18.70;100.00;100426.06;5030022;28;20481;-83
2023/05/29 07:23:54;;;;;;;23.60;15.32;;;;;;;18.64;100.00;100430.38;5030010;28;20481;-87
2023/05/29 07:26:22;;;;;;;29.92;14.40;;;;;;;18.62;100.00;100434.31;5029780;28;20018;-86
2023/05/29 07:28:48;;;;;;;22.77;12.77;;;;;;;18.60;100.00;100442.66;5030410;28;20504;-89
2023/05/29 07:31:13;;;;;;;19.60;12.23;;;;;;;18.62;100.00;100445.22;5030756;28;20022;-86
2023/05/29 07:33:41;;;;;;;26.02;13.82;;;;;;;18.73;100.00;100447.50;5029877;28;20037;-87
2023/05/29 07:36:07;;;;;;;35.60;17.00;;;;;;;18.72;100.00;100434.91;5031735;28;20030;-87
2023/05/29 07:38:33;;;;;;;35.95;20.13;;;;;;;18.90;100.00;100454.50;5031272;28;20537;-86
2023/05/29 07:40:58;;;;;;;69.28;30.88;;;;;;;18.96;100.00;100471.00;5031293;28;20037;-86
2023/05/29 07:43:25;;;;;;;60.05;25.83;;;;;;;18.88;100.00;100448.41;5030550;28;20041;-91
2023/05/29 07:45:51;;;;;;;58.33;22.30;;;;;;;18.91;100.00;100448.03;5034278;28;20033;-86
2023/05/29 07:48:17;;;;;;;41.30;18.38;;;;;;;18.91;100.00;100450.78;5036734;28;20034;-90
2023/05/29 07:50:44;;;;;;;35.95;19.05;;;;;;;18.80;100.00;100445.75;5038740;28;20033;-86
2023/05/29 07:53:09;;;;;;;44.03;23.83;;;;;;;18.79;100.00;100441.31;5043254;28;20534;-87
2023/05/29 07:55:35;;;;;;;35.15;17.52;;;;;;;18.97;100.00;100450.03;5038647;28;20129;-86
2023/05/29 07:58:01;;;;;;;42.72;19.63;;;;;;;18.87;100.00;100444.84;5034025;28;20022;-82
2023/05/29 08:00:28;;;;;;;25.55;16.38;;;;;;;18.86;100.00;100442.31;5043613;28;20039;-84
2023/05/29 08:02:53;;;;;;;24.42;14.73;;;;;;;18.78;100.00;100439.63;5046606;28;20032;-87
2023/05/29 08:05:19;;;;;;;22.48;14.30;;;;;;;18.76;100.00;100447.13;5033564;28;20124;-83
2023/05/29 08:07:44;;;;;;;20.15;13.55;;;;;;;18.89;100.00;100470.03;5031754;28;20018;-85
2023/05/29 08:10:10;;;;;;;30.00;15.57;;;;;;;18.79;100.00;100447.63;5030686;28;20627;-80
2023/05/29 08:12:35;;;;;;;24.60;14.18;;;;;;;18.74;100.00;100452.78;5029998;28;20025;-82
2023/05/29 08:15:02;;;;;;;31.20;14.73;;;;;;;18.87;100.00;100457.59;5034365;28;20041;-81
2023/05/29 08:17:27;;;;;;;21.95;13.68;;;;;;;18.81;100.00;100456.47;5037216;28;20041;-80
2023/05/29 08:19:53;;;;;;;33.92;13.75;;;;;;;18.93;100.00;100459.59;5030900;28;20032;-81
2023/05/29 08:22:19;;;;;;;21.67;13.98;;;;;;;18.82;100.00;100439.09;5029840;28;20040;-83
2023/05/29 08:24:44;;;;;;;23.42;14.70;;;;;;;18.99;100.00;100447.97;5028560;28;20167;-83
2023/05/29 08:27:10;;;;;;;20.88;15.25;;;;;;;19.11;100.00;100457.41;5029216;28;20064;-82
2023/05/29 08:29:36;;;;;;;42.95;25.10;;;;;;;19.16;100.00;100438.63;5029347;28;20037;-82
2023/05/29 08:32:02;;;;;;;26.58;14.95;;;;;;;19.34;100.00;100457.38;5030394;28;20029;-82
2023/05/29 08:34:27;;;;;;;21.77;14.68;;;;;;;19.48;100.00;100462.88;5028884;28;20563;-81
2023/05/29 08:36:54;;;;;;;28.33;15.07;;;;;;;19.52;100.00;100461.47;5028534;28;20117;-81
2023/05/29 08:39:20;;;;;;;24.13;13.60;;;;;;;19.48;100.00;100438.31;5029219;28;20034;-82
2023/05/29 08:42:22;;;;;;;15.77;11.73;;;;;;;19.63;100.00;100445.69;5028738;28;20025;-82
2023/05/29 08:44:50;;;;;;;28.45;13.35;;;;;;;19.68;100.00;100459.59;5029118;28;20410;-82
2023/05/29 08:47:20;;;;;;;22.83;13.70;;;;;;;19.76;100.00;100454.03;5027837;28;20481;-82
2023/05/29 08:49:53;;;;;;;14.10;10.20;;;;;;;19.88;100.00;100458.00;5031285;28;20037;-80
2023/05/29 08:52:27;;;;;;;;;;;;;;;19.95;100.00;100457.06;5031440;28;20440;-81
2023/05/29 08:54:54;;;;;;;18.52;12.15;;;;;;;19.91;100.00;100441.22;5029522;28;19995;-80
2023/05/29 08:57:20;;;;;;;19.67;10.98;;;;;;;20.02;100.00;100448.97;5035902;28;20025;-82
2023/05/29 08:59:49;;;;;;;19.80;9.73;;;;;;;20.10;100.00;100444.25;5035600;28;20097;-81
2023/05/29 09:02:15;;;;;;;22.35;13.00;;;;;;;20.13;100.00;100453.94;5029696;28;20025;-80
2023/05/29 09:04:44;;;;;;;15.80;11.02;;;;;;;20.21;100.00;100444.78;5030938;28;20042;-83
2023/05/29 09:07:11;;;;;;;13.52;9.75;;;;;;;20.26;100.00;100454.13;5030493;28;20026;-84
2023/05/29 09:09:36;;;;;;;14.90;10.60;;;;;;;20.30;100.00;100444.53;5046720;28;20021;-80
2023/05/29 09:12:03;;;;;;;17.55;12.00;;;;;;;20.33;100.00;100444.16;5050055;28;20037;-82
2023/05/29 09:14:41;;;;;;;10.32;9.23;;;;;;;20.31;100.00;100443.47;5042211;28;20049;-82
2023/05/29 09:17:08;;;;;;;17.23;10.13;;;;;;;20.44;100.00;100435.44;5034717;28;20458;-84
2023/05/29 09:19:34;;;;;;;12.40;10.98;;;;;;;20.63;100.00;100445.75;5035210;28;20025;-82
2023/05/29 09:22:05;;;;;;;13.15;10.32;;;;;;;20.58;100.00;100442.72;5035131;28;20025;-80
2023/05/29 09:24:32;;;;;;;13.30;9.55;;;;;;;20.73;100.00;100437.22;5033356;28;20138;-81
2023/05/29 09:27:01;;;;;;;15.35;10.95;;;;;;;20.76;100.00;100422.31;5030897;28;20484;-82
2023/05/29 09:29:30;;;;;;;16.40;11.57;;;;;;;20.89;100.00;100423.28;5031910;28;20034;-82
2023/05/29 09:31:56;;;;;;;13.65;11.00;;;;;;;20.99;100.00;100436.59;5032067;28;20037;-81
2023/05/29 09:34:24;;;;;;;31.60;14.23;;;;;;;21.10;100.00;100430.63;5030276;28;20032;-81
2023/05/29 09:36:51;;;;;;;15.07;10.60;;;;;;;21.40;100.00;100439.53;5032697;28;20041;-82
2023/05/29 09:39:17;;;;;;;21.90;11.20;;;;;;;21.39;100.00;100446.88;5032551;28;20030;-82
2023/05/29 09:41:48;;;;;;;19.98;10.90;;;;;;;21.37;100.00;100421.63;5031646;28;20028;-82
2023/05/29 09:44:15;;;;;;;18.45;11.30;;;;;;;21.79;100.00;100428.81;5031630;28;20033;-82
2023/05/29 09:46:42;;;;;;;24.63;11.63;;;;;;;21.98;100.00;100438.22;5032594;28;20026;-81
2023/05/29 09:49:13;;;;;;;25.25;12.85;;;;;;;21.94;100.00;100409.53;5032527;28;20496;-81
2023/05/29 09:51:39;;;;;;;20.75;12.80;;;;;;;22.31;100.00;100424.66;5032414;28;20134;-83
2023/05/29 09:54:17;;;;;;;19.63;12.00;;;;;;;22.30;98.89;100423.81;5036141;28;20037;-81
2023/05/29 09:56:43;;;;;;;23.73;12.95;;;;;;;22.55;98.05;100433.16;5032793;28;20582;-81
2023/05/29 09:59:14;;;;;;;18.67;12.50;;;;;;;22.59;97.77;100401.56;5031319;28;20033;-80
2023/05/29 10:01:44;;;;;;;20.60;11.93;;;;;;;22.78;97.36;100416.38;5031176;28;20041;-80
2023/05/29 10:04:13;;;;;;;17.05;12.32;;;;;;;22.84;96.51;100414.69;5031074;28;20493;-80
2023/05/29 10:06:44;;;;;;;25.33;11.63;;;;;;;22.64;93.52;100410.00;5031102;28;20033;-80
2023/05/29 10:09:11;;;;;;;18.20;12.20;;;;;;;22.52;93.19;100389.72;5030783;28;20481;-80
2023/05/29 10:11:40;;;;;;;18.40;12.50;;;;;;;22.58;93.48;100399.84;5030891;28;20034;-81
2023/05/29 10:14:09;;;;;;;24.88;13.32;;;;;;;22.73;93.47;100413.41;5030783;28;20073;-80
2023/05/29 10:16:41;;;;;;;19.10;14.88;;;;;;;22.55;93.97;100392.03;5031404;28;20171;-82
2023/05/29 10:19:13;;;;;;;24.95;16.95;;;;;;;22.24;92.64;100389.84;5035352;28;20036;-82
2023/05/29 10:21:41;;;;;;;25.17;17.98;;;;;;;22.31;93.31;100408.22;5043915;28;20030;-81
2023/05/29 10:24:08;;;;;;;25.30;17.80;;;;;;;22.38;94.27;100406.34;5033936;28;20037;-81
2023/05/29 10:26:40;;;;;;;22.77;17.65;;;;;;;22.48;95.61;100404.03;5029824;28;20456;-80
2023/05/29 10:29:15;;;;;;;18.30;15.45;;;;;;;22.47;94.80;100403.22;5032542;28;20033;-82
2023/05/29 10:32:26;;;;;;;24.70;17.35;;;;;;;22.52;95.71;100405.31;5032572;28;20045;-81
2023/05/29 10:35:05;;;;;;;23.45;18.25;;;;;;;22.50;95.57;100397.31;4990255;28;20050;-82
2023/05/29 10:37:45;;;;;;;32.72;25.13;;;;;;;22.61;95.93;100402.19;4990313;28;20086;-81
2023/05/29 10:40:14;;;;;;;29.17;22.73;;;;;;;22.56;96.66;100382.78;4991047;28;20089;-82
2023/05/29 10:42:43;;;;;;;34.78;24.30;;;;;;;22.66;97.80;100394.19;4995463;28;20027;-82
2023/05/29 10:45:11;;;;;;;40.85;24.65;;;;;;;22.62;97.38;100383.84;5007870;28;20042;-81
2023/05/29 10:47:37;;;;;;;32.03;22.88;;;;;;;22.72;98.78;100407.06;4976575;28;20026;-82
2023/05/29 10:50:03;;;;;;;41.50;23.80;;;;;;;22.68;98.76;100416.78;5002195;28;20569;-81
2023/05/29 10:52:33;;;;;;;28.48;23.17;;;;;;;22.72;100.00;100398.84;4982782;28;20038;-83
2023/05/29 10:55:00;;;;;;;27.63;19.65;;;;;;;22.74;100.00;100399.50;4989749;28;20679;-82
2023/05/29 10:57:26;;;;;;;22.73;14.77;;;;;;;22.72;100.00;100406.22;4990551;28;20042;-82
2023/05/29 11:00:18;;;;;;;24.05;14.77;;;;;;;22.66;98.16;100410.66;4989686;28;20042;-82
2023/05/29 11:02:43;;;;;;;29.07;17.80;;;;;;;22.47;97.75;100391.41;4989629;28;20128;-83
2023/05/29 11:05:19;;;;;;;22.90;17.45;;;;;;;22.46;97.19;100412.47;4989833;28;20282;-81
2023/05/29 11:08:00;;;;;;;19.80;14.05;;;;;;;22.24;97.36;100397.22;4988982;28;20100;-82